ENHD/HAU METAR and TAF weather

Enter ICAO airport designator
Station Type Date Time Source
ENHD METAR 2018/10/16 20:20 UTC NOAA

ENHD 162020Z 15017KT 9999 FEW008 BKN019 OVC023 11/09 Q1012


Station Type Date Time Source
ENHD Decoded METAR 2018/10/16 20:20 UTC NOAA

Haugesund / Karmoy, Norway (ENHD) 59-21N 005-13E 24M
Oct 16, 2018 - 04:20 PM EDT / 2018.10.16 2020 UTC
Wind: from the SSE (150 degrees) at 20 MPH (17 KT):0
Visibility: greater than 7 mile(s):0
Sky conditions: overcast
Temperature: 51 F (11 C)
Dew Point: 48 F (9 C)
Relative Humidity: 87%
Pressure (altimeter): 29.88 in. Hg (1012 hPa)
ob: ENHD 162020Z 15017KT 9999 FEW008 BKN019 OVC023 11/09 Q1012
cycle: 20

Station Type Date Time Source
ENHD TAF UTC NOAA

Error!


Example: see airport list